AirNav   ProFlight Series 2 Aviation Headset
 
 366 users online  

9VA1 Holly Point Airport
Mathews, Virginia, USA

GOING TO MATHEWS?


FAA INFORMATION EFFECTIVE 18 JUNE 2020

Location

FAA Identifier: 9VA1
Lat/Long: 37-24-19.4970N 076-23-17.8030W
37-24.324950N 076-23.296717W
37.4054158,-76.3882786
(estimated)
Elevation: 12 ft. / 3.7 m (surveyed)
Variation: 09W (1985)
From city: 4 miles SW of MATHEWS, VA
Time zone: UTC -4 (UTC -5 during Standard Time)
Zip code: 23021

Airport Operations

Airport use: Private use. Permission required prior to landing
Activation date: 07/1982
Control tower: no
ARTCC: WASHINGTON CENTER
FSS: LEESBURG FLIGHT SERVICE STATION
Attendance: UNATNDD
Segmented circle: no

Airport Communications

WX AWOS-3 at W75 (12 nm N): 118.45 (804-758-8592)
WX ASOS at PHF (17 nm S): PHONE 757-874-3682
WX AWOS-3 at JGG (19 nm SW): 120.625 (757-220-8810)
WX AWOS-3 at FYJ (19 nm W): 132.825 (804-785-2307)

Nearby radio navigation aids

VOR radial/distance  VOR name  Freq  Var
HCMr107/15.6HARCUM VORTAC108.8007W
CCVr291/18.9CAPE CHARLES VORTAC112.2010W
ORFr351/32.1NORFOLK VORTAC116.9007W
HPWr088/35.0HOPEWELL VORTAC112.0006W

 
NDB name  Hdg/Dist  Freq  Var  ID
WAKEFIELD060/38.727411WAKQ .- -.- --.-

Airport Services

Runway Information

Runway E/W

Dimensions: 2200 x 150 ft. / 671 x 46 m
Surface: turf
RUNWAY E  RUNWAY W
Traffic pattern: leftleft
Obstructions: trees
E/W POWER LINES AT WEST END OF RWY.
trees

Airport Ownership and Management from official FAA records

Ownership: Privately-owned
Owner: R. W. BREEDEN
HOLLY POINT FARM/RT 617
MATHEWS, VA 23128
Phone 804-481-0000
Manager: R. W. BREEDEN
HOLLY POINT FARM/RT 617
MATHEWS, VA 23128
Phone 804-725-5023

Additional Remarks

FOR CD CTC NORFOLK APCH AT 757-464-0757.

Instrument Procedures

There are no published instrument procedures at 9VA1.

Some nearby airports with instrument procedures:

W75 - Hummel Field Airport (12 nm N)
W94 - Camp Peary Landing Strip Airport (13 nm SW)
KPHF - Newport News/Williamsburg International Airport (17 nm S)
KJGG - Williamsburg-Jamestown Airport (19 nm SW)
KFYJ - Middle Peninsula Regional Airport (19 nm W)
KLFI - Langley Air Force Base (19 nm S)
KFAF - Felker Army Airfield (19 nm SW)
 
Loc | Ops | Rwys | IFR | FBO | Links
Com | Nav | Svcs | Stats | Notes
Area around 9VA1 (Holly Point Airport)
 
Road maps at: MapQuest Bing Google
 
Aerial photo
No photo
 
Sectional chart

 
Airport distance calculator
Flying to Holly Point Airport? Find the distance to fly.

From to 9VA1

Sunrise and sunset
Times for 09-Jul-2020
 Local
(UTC-4)
 Zulu
(UTC)
Morning civil twilight05:2409:24
Sunrise05:5409:54
Sunset20:2700:27
Evening civil twilight20:5800:58

Current date and time
Zulu (UTC)  09-Jul-2020 06:23:06
Local (UTC-4)  09-Jul-2020 02:23:06
 
METAR
KW75 
12nm N 
090555Z AUTO 13004KT 10SM CLR 26/25 A2992 RMK AO1 T02550251 10274 20255
KPHF 
17nm S 
090554Z AUTO 00000KT 10SM CLR 24/22 A2990 RMK AO2 SLP126 60000 T02440222 10278 20244 58013
KJGG 
19nm SW 
090555Z AUTO A2990 RMK AO1
KFYJ 
19nm W 
090555Z AUTO 00000KT 7SM CLR 23/23 A2993 RMK AO1 T02270225 10271 20220 403170199
KLFI 
20nm S 
090556Z 10007KT 10SM CLR 25/25 A2991 RMK AO2A SLP135 T02520252 10265 20252 57013 $
KFAF 
20nm SW 
090556Z AUTO 00000KT 10SM CLR 25/23 A2988 RMK AO2 SLP121 T02500234 10276 20249 57011 $
TAF
KPHF 
17nm S 
090521Z 0906/1006 08003KT P6SM SCT015 BKN150 TEMPO 0908/0912 3SM BR BKN015 FM091200 07009KT P6SM SCT030 BKN060 FM091700 06013G20KT 6SM SHRA BKN035 FM100000 03013KT 4SM SHRA BKN025
KLFI 
20nm S 
090100Z 0901/1007 10009KT 9999 FEW020 SCT030 QNH2991INS BECMG 0913/0914 09012G18KT 8000 -SHRA BKN025 QNH2991INS TEMPO 0916/0920 09025G35KT 8000 -TSRA OVC050CB BECMG 0923/0924 09012G18KT 9999 -SHRA BKN025 QNH2986INS BECMG 1006/1007 05015KT 9999 NSW BKN025 QNH2983INS TX26/0917Z TN23/0908Z
KFAF 
20nm SW 
081810Z 0818/0924 09009KT 9999 SCT020 SCT030 BKN150 QNH2987INS BECMG 0822/0823 09010G15KT 9999 FEW015 BKN025 QNH2988INS BECMG 0902/0903 10009KT 6000 BR BKN011 QNH2986INS BECMG 0910/0911 07009KT 9999 NSW BKN015 QNH2988INS BECMG 0913/0914 08012G18KT 6000 -SHRA BKN025 QNH2989INS TEMPO 0915/0918 4800 -TSRA BKN010CB TX29/0818Z TN24/0909Z LAST NO AMDS AFT 0823 NEXT 0910
NOTAMs
Click for the latest NOTAMs
NOTAMs are issued by the DoD/FAA and will open in a separate window not controlled by AirNav.

 

 
 

Would you like to see your business listed on this page?

 If your business provides an interesting product or service to pilots, flight crews, aircraft, or users of the Holly Point Airport, you should consider listing it here.  To start the listing process, click on the button below
 
Add a business
 

Other Pages about Holly Point Airport

Update a link
 
Copyright © AirNav, LLC. All rights reserved. Privacy Policy  Contact